createdAt,value
2022-11-13T00:00:37.498Z,3.17
2022-11-13T00:03:03.848Z,2.92
2022-11-13T00:05:30.228Z,3.08
2022-11-13T00:07:56.577Z,3.33
2022-11-13T00:10:23.477Z,3.08
2022-11-13T00:12:49.818Z,2.97
2022-11-13T00:15:16.299Z,3.13
2022-11-13T00:17:42.645Z,2.80
2022-11-13T00:20:09.177Z,3.20
2022-11-13T00:22:35.508Z,2.80
2022-11-13T00:25:01.902Z,3.05
2022-11-13T00:27:30.768Z,3.08
2022-11-13T00:29:57.207Z,3.60
2022-11-13T00:32:23.556Z,3.88
2022-11-13T00:34:49.892Z,3.60
2022-11-13T00:37:16.254Z,3.45
2022-11-13T00:39:42.591Z,2.97
2022-11-13T00:42:09.092Z,3.10
2022-11-13T00:44:35.453Z,3.42
2022-11-13T00:47:01.868Z,4.18
2022-11-13T00:49:28.461Z,3.92
2022-11-13T00:51:54.860Z,3.50
2022-11-13T00:54:21.445Z,3.67
2022-11-13T00:56:47.881Z,3.60
2022-11-13T00:59:14.251Z,3.63
2022-11-13T01:01:40.763Z,3.50
2022-11-13T01:04:07.163Z,3.35
2022-11-13T01:06:33.502Z,3.58
2022-11-13T01:09:00.120Z,3.33
2022-11-13T01:11:29.357Z,3.65
2022-11-13T01:13:56.175Z,3.63
2022-11-13T01:16:24.882Z,3.97
2022-11-13T01:18:55.249Z,3.95
2022-11-13T01:21:24.913Z,3.70
2022-11-13T01:23:51.473Z,4.78
2022-11-13T01:26:23.898Z,4.15
2022-11-13T01:28:50.549Z,3.90
2022-11-13T01:31:19.987Z,3.88
2022-11-13T01:33:48.049Z,3.97
2022-11-13T01:36:21.322Z,3.80
2022-11-13T01:38:48.171Z,3.78
2022-11-13T01:41:25.322Z,3.60
2022-11-13T01:43:54.453Z,3.78
2022-11-13T01:46:32.593Z,3.00
2022-11-13T01:49:08.002Z,3.13
2022-11-13T01:51:41.277Z,3.08
2022-11-13T01:54:12.993Z,2.10
2022-11-13T01:56:40.746Z,2.45
2022-11-13T01:59:13.027Z,2.42
2022-11-13T02:01:39.677Z,2.97
2022-11-13T02:04:06.091Z,2.67
2022-11-13T02:06:43.904Z,2.38
2022-11-13T02:09:12.597Z,1.83
2022-11-13T02:11:39.522Z,2.03
2022-11-13T02:14:08.461Z,2.40
2022-11-13T02:16:37.789Z,1.92
2022-11-13T02:19:10.265Z,2.17
2022-11-13T02:21:59.578Z,2.50
2022-11-13T02:24:29.590Z,2.75
2022-11-13T02:27:01.771Z,2.30
2022-11-13T02:29:28.101Z,2.45
2022-11-13T02:31:54.488Z,2.65
2022-11-13T02:34:20.878Z,2.53
2022-11-13T02:36:47.757Z,2.92
2022-11-13T02:39:14.608Z,2.38
2022-11-13T02:41:41.176Z,3.10
2022-11-13T02:44:08.330Z,3.30
2022-11-13T02:46:35.070Z,2.70
2022-11-13T02:49:01.535Z,2.85
2022-11-13T02:51:27.984Z,3.38
2022-11-13T02:53:54.927Z,3.40
2022-11-13T02:56:21.297Z,2.80
2022-11-13T02:58:47.840Z,3.30
2022-11-13T03:01:14.214Z,4.00
2022-11-13T03:03:57.103Z,4.30
2022-11-13T03:06:24.405Z,4.07
2022-11-13T03:08:50.766Z,3.13
2022-11-13T03:11:17.179Z,3.40
2022-11-13T03:13:43.529Z,4.15
2022-11-13T03:16:13.018Z,3.97
2022-11-13T03:18:39.680Z,4.15
2022-11-13T03:21:11.414Z,3.97
2022-11-13T03:23:38.684Z,3.95
2022-11-13T03:26:07.518Z,3.80
2022-11-13T03:28:34.981Z,4.05
2022-11-13T03:31:01.418Z,3.53
2022-11-13T03:33:27.917Z,3.10
2022-11-13T03:35:54.676Z,3.47
2022-11-13T03:38:21.325Z,3.42
2022-11-13T03:40:47.865Z,3.60
2022-11-13T03:43:14.299Z,3.40
2022-11-13T03:45:40.675Z,3.63
2022-11-13T03:48:07.093Z,3.40
2022-11-13T03:50:33.514Z,3.58
2022-11-13T03:52:59.929Z,3.72
2022-11-13T03:55:26.327Z,3.72
2022-11-13T03:57:52.651Z,3.40
2022-11-13T04:00:19.021Z,3.47
2022-11-13T04:02:45.354Z,2.92
2022-11-13T04:05:11.801Z,2.70
2022-11-13T04:07:38.145Z,3.03
2022-11-13T04:10:05.111Z,2.95
2022-11-13T04:12:31.481Z,3.38
2022-11-13T04:14:57.836Z,3.00
2022-11-13T04:17:24.241Z,3.20
2022-11-13T04:19:50.661Z,3.15
2022-11-13T04:22:17.147Z,3.00
2022-11-13T04:24:43.514Z,3.20
2022-11-13T04:27:09.925Z,3.33
2022-11-13T04:29:36.303Z,3.67
2022-11-13T04:32:02.644Z,3.60
2022-11-13T04:34:28.973Z,3.15
2022-11-13T04:36:55.537Z,3.05
2022-11-13T04:39:21.885Z,2.80
2022-11-13T04:42:06.945Z,2.97
2022-11-13T04:44:33.351Z,3.03
2022-11-13T04:46:59.673Z,3.80
2022-11-13T04:49:26.045Z,4.57
2022-11-13T04:51:52.377Z,5.03
2022-11-13T04:54:18.825Z,4.25
2022-11-13T04:56:45.374Z,3.78
2022-11-13T04:59:11.798Z,4.38
2022-11-13T05:01:38.522Z,4.35
2022-11-13T05:04:05.319Z,4.00
2022-11-13T05:06:31.725Z,3.95
2022-11-13T05:08:58.227Z,3.67
2022-11-13T05:11:24.545Z,3.65
2022-11-13T05:13:50.893Z,3.55
2022-11-13T05:16:17.304Z,3.58
2022-11-13T05:18:43.641Z,3.42
2022-11-13T05:21:10.072Z,3.97
2022-11-13T05:23:36.810Z,3.80
2022-11-13T05:26:11.717Z,3.67
2022-11-13T05:28:39.203Z,3.73
2022-11-13T05:31:07.714Z,4.40
2022-11-13T05:33:34.884Z,4.43
2022-11-13T05:36:06.749Z,4.90
2022-11-13T05:38:34.063Z,4.03
2022-11-13T05:41:05.600Z,4.57
2022-11-13T05:43:32.563Z,4.53
2022-11-13T05:46:12.278Z,4.28
2022-11-13T05:48:39.518Z,4.47
2022-11-13T05:51:08.890Z,4.50
2022-11-13T05:53:36.574Z,4.55
2022-11-13T05:56:06.099Z,4.97
2022-11-13T05:58:32.989Z,4.85
2022-11-13T06:01:30.257Z,4.28
2022-11-13T06:03:57.893Z,4.60
2022-11-13T06:06:25.837Z,5.10
2022-11-13T06:08:54.269Z,4.50
2022-11-13T06:11:23.342Z,4.53
2022-11-13T06:13:51.197Z,4.82
2022-11-13T06:16:23.490Z,4.53
2022-11-13T06:18:50.888Z,4.22
2022-11-13T06:21:20.579Z,4.70
2022-11-13T06:23:47.330Z,4.45
2022-11-13T06:26:22.649Z,4.43
2022-11-13T06:28:49.113Z,4.65
2022-11-13T06:31:21.995Z,4.00
2022-11-13T06:33:48.810Z,3.95
2022-11-13T06:36:18.574Z,4.88
2022-11-13T06:38:45.181Z,4.20
2022-11-13T06:41:13.604Z,4.25
2022-11-13T06:43:40.356Z,4.07
2022-11-13T06:46:10.541Z,4.22
2022-11-13T06:48:37.033Z,3.83
2022-11-13T06:51:15.354Z,5.45
2022-11-13T06:53:42.382Z,5.45
2022-11-13T06:56:09.658Z,5.82
2022-11-13T06:58:36.155Z,5.55
2022-11-13T07:01:10.675Z,5.70
2022-11-13T07:03:37.511Z,5.75
2022-11-13T07:06:05.726Z,5.82
2022-11-13T07:08:32.391Z,6.88
2022-11-13T07:10:59.213Z,8.43
2022-11-13T07:13:27.262Z,6.75
2022-11-13T07:15:54.009Z,5.60
2022-11-13T07:18:24.162Z,5.82
2022-11-13T07:20:50.810Z,5.10
2022-11-13T07:23:17.179Z,5.93
2022-11-13T07:25:43.521Z,5.10
2022-11-13T07:28:09.953Z,5.22
2022-11-13T07:30:36.279Z,6.68
2022-11-13T07:33:04.306Z,6.32
2022-11-13T07:35:31.035Z,7.40
2022-11-13T07:37:58.005Z,7.47
2022-11-13T07:40:24.596Z,6.85
2022-11-13T07:43:01.928Z,6.85
2022-11-13T07:45:29.161Z,5.70
2022-11-13T07:47:59.938Z,6.40
2022-11-13T07:50:31.042Z,5.53
2022-11-13T07:53:03.407Z,5.72
2022-11-13T07:55:30.153Z,5.30
2022-11-13T07:57:58.498Z,6.60
2022-11-13T08:00:29.367Z,5.90
2022-11-13T08:02:56.226Z,5.22
2022-11-13T08:05:23.274Z,5.32
2022-11-13T08:07:51.666Z,5.63
2022-11-13T08:10:19.982Z,5.45
2022-11-13T08:12:47.312Z,6.03
2022-11-13T08:15:16.926Z,5.90
2022-11-13T08:17:43.306Z,6.70
2022-11-13T08:20:10.393Z,7.03
2022-11-13T08:22:36.721Z,7.10
2022-11-13T08:25:03.682Z,6.32
2022-11-13T08:27:30.177Z,7.20
2022-11-13T08:29:56.501Z,7.05
2022-11-13T08:32:22.858Z,6.93
2022-11-13T08:34:49.447Z,6.00
2022-11-13T08:37:16.041Z,5.50
2022-11-13T08:39:42.434Z,5.10
2022-11-13T08:42:08.766Z,4.30
2022-11-13T08:44:35.129Z,4.43
2022-11-13T08:47:01.518Z,4.50
2022-11-13T08:49:27.862Z,4.10
2022-11-13T08:51:54.198Z,4.45
2022-11-13T08:54:20.874Z,4.18
2022-11-13T08:56:54.468Z,4.20
2022-11-13T08:59:23.693Z,4.43
2022-11-13T09:01:50.458Z,3.97
2022-11-13T09:04:16.793Z,4.50
2022-11-13T09:06:43.198Z,4.10
2022-11-13T09:09:09.633Z,3.80
2022-11-13T09:11:36.172Z,3.90
2022-11-13T09:14:02.550Z,3.83
2022-11-13T09:16:29.091Z,3.72
2022-11-13T09:18:55.500Z,3.90
2022-11-13T09:21:21.837Z,3.85
2022-11-13T09:23:48.159Z,3.45
2022-11-13T09:26:14.546Z,3.70
2022-11-13T09:28:40.877Z,3.42
2022-11-13T09:31:07.599Z,3.80
2022-11-13T09:33:34.241Z,3.53
2022-11-13T09:36:00.811Z,3.92
2022-11-13T09:38:29.810Z,4.00
2022-11-13T09:41:04.796Z,3.97
2022-11-13T09:43:36.666Z,3.38
2022-11-13T09:46:08.726Z,3.95
2022-11-13T09:48:41.697Z,3.42
2022-11-13T09:51:29.554Z,3.30
2022-11-13T09:53:56.213Z,3.42
2022-11-13T09:56:28.119Z,3.38
2022-11-13T09:59:23.817Z,3.20
2022-11-13T10:02:28.782Z,3.33
2022-11-13T10:05:13.454Z,3.08
2022-11-13T10:07:48.516Z,2.97
2022-11-13T10:10:33.296Z,2.97
2022-11-13T10:13:00.824Z,2.72
2022-11-13T10:15:27.772Z,2.88
2022-11-13T10:18:00.440Z,2.70
2022-11-13T10:20:55.642Z,2.60
2022-11-13T10:23:28.095Z,2.58
2022-11-13T10:25:58.353Z,2.20
2022-11-13T10:28:49.562Z,2.92
2022-11-13T10:31:14.401Z,2.10
2022-11-13T10:33:40.730Z,2.55
2022-11-13T10:36:28.551Z,2.35
2022-11-13T10:39:02.896Z,2.20
2022-11-13T10:41:29.414Z,2.53
2022-11-13T10:44:04.419Z,2.20
2022-11-13T10:46:31.593Z,2.40
2022-11-13T10:48:58.669Z,2.50
2022-11-13T10:51:28.777Z,2.20
2022-11-13T10:53:55.782Z,2.25
2022-11-13T10:56:26.423Z,2.42
2022-11-13T10:59:11.434Z,2.17
2022-11-13T11:01:38.913Z,2.20
2022-11-13T11:04:21.493Z,2.13
2022-11-13T11:07:18.419Z,2.03
2022-11-13T11:09:38.367Z,2.00
2022-11-13T11:12:17.208Z,1.80
2022-11-13T11:14:58.976Z,2.20
2022-11-13T11:17:51.347Z,1.92
2022-11-13T11:20:35.593Z,1.67
2022-11-13T11:23:37.134Z,2.10
2022-11-13T11:26:13.767Z,2.60
2022-11-13T11:29:00.311Z,2.42
2022-11-13T11:31:41.975Z,2.00
2022-11-13T11:34:42.001Z,2.10
2022-11-13T11:37:19.421Z,1.92
2022-11-13T11:39:54.813Z,1.85
2022-11-13T11:42:26.701Z,1.63
2022-11-13T11:45:16.233Z,1.85
2022-11-13T11:47:43.427Z,1.60
2022-11-13T11:50:14.630Z,1.45
2022-11-13T11:52:56.508Z,1.70
2022-11-13T11:55:37.298Z,1.83
2022-11-13T11:58:29.154Z,1.88
2022-11-13T12:01:05.816Z,1.88
2022-11-13T12:03:38.096Z,1.65
2022-11-13T12:06:26.415Z,1.50
2022-11-13T12:09:10.162Z,1.40
2022-11-13T12:11:51.440Z,1.58
2022-11-13T12:14:48.212Z,1.65
2022-11-13T12:17:38.124Z,1.95
2022-11-13T12:20:26.368Z,1.38
2022-11-13T12:23:11.004Z,1.30
2022-11-13T12:25:53.028Z,1.70
2022-11-13T12:28:42.860Z,1.45
2022-11-13T12:31:39.268Z,1.60
2022-11-13T12:34:29.827Z,1.50
2022-11-13T12:36:58.414Z,1.50
2022-11-13T12:39:40.910Z,1.70
2022-11-13T12:42:29.328Z,1.42
2022-11-13T12:45:16.727Z,1.63
2022-11-13T12:47:43.377Z,1.50
2022-11-13T12:50:32.212Z,1.90
2022-11-13T12:53:11.133Z,1.40
2022-11-13T12:55:39.667Z,1.70
2022-11-13T12:58:09.465Z,1.50
2022-11-13T13:00:41.181Z,1.60
2022-11-13T13:03:21.453Z,1.48
2022-11-13T13:06:03.142Z,1.40
2022-11-13T13:08:47.873Z,1.40
2022-11-13T13:11:23.135Z,1.58
2022-11-13T13:14:04.101Z,1.20
2022-11-13T13:16:30.514Z,1.33
2022-11-13T13:19:32.549Z,1.38
2022-11-13T13:21:59.052Z,1.20
2022-11-13T13:24:37.166Z,1.40
2022-11-13T13:27:22.040Z,1.60
2022-11-13T13:29:48.374Z,1.40
2022-11-13T13:32:23.630Z,1.33
2022-11-13T13:34:59.328Z,1.45
2022-11-13T13:37:38.292Z,1.30
2022-11-13T13:40:13.671Z,1.58
2022-11-13T13:42:58.398Z,1.27
2022-11-13T13:45:43.214Z,1.58
2022-11-13T13:48:12.389Z,1.30
2022-11-13T13:50:44.406Z,1.50
2022-11-13T13:53:15.155Z,1.60
2022-11-13T13:55:48.643Z,2.13
2022-11-13T13:58:19.280Z,1.67
2022-11-13T14:01:17.049Z,2.10
2022-11-13T14:06:29.195Z,1.77
2022-11-13T14:08:55.565Z,1.80
2022-11-13T14:11:29.387Z,1.83
2022-11-13T14:14:07.002Z,1.90
2022-11-13T14:16:33.713Z,1.90
2022-11-13T14:19:05.205Z,2.10
2022-11-13T14:21:31.873Z,1.88
2022-11-13T14:24:02.368Z,1.90
2022-11-13T14:26:29.505Z,1.77
2022-11-13T14:28:59.966Z,1.85
2022-11-13T14:31:30.178Z,2.00
2022-11-13T14:34:00.066Z,2.00
2022-11-13T14:36:31.409Z,1.80
2022-11-13T14:38:59.019Z,1.80
2022-11-13T14:41:34.181Z,1.80
2022-11-13T14:44:00.678Z,1.90
2022-11-13T14:46:45.698Z,2.30
2022-11-13T14:49:15.301Z,2.47
2022-11-13T14:51:41.889Z,3.85
2022-11-13T14:54:33.822Z,4.00
2022-11-13T14:57:10.613Z,4.15
2022-11-13T14:59:38.402Z,4.05
2022-11-13T15:02:05.163Z,4.38
2022-11-13T15:04:35.266Z,4.30
2022-11-13T15:07:26.693Z,4.70
2022-11-13T15:09:53.486Z,4.32
2022-11-13T15:12:19.920Z,4.75
2022-11-13T15:14:46.309Z,4.53
2022-11-13T15:17:16.673Z,4.68
2022-11-13T15:19:43.607Z,4.57
2022-11-13T15:22:26.711Z,4.85
2022-11-13T15:24:54.308Z,4.53
2022-11-13T15:27:20.725Z,4.38
2022-11-13T15:29:47.069Z,4.75
2022-11-13T15:32:15.183Z,4.80
2022-11-13T15:34:41.908Z,4.63
2022-11-13T15:37:11.680Z,4.38
2022-11-13T15:39:38.045Z,4.78
2022-11-13T15:42:07.897Z,4.97
2022-11-13T15:44:34.214Z,5.15
2022-11-13T15:47:00.675Z,4.85
2022-11-13T15:49:27.535Z,4.95
2022-11-13T15:51:53.905Z,5.32
2022-11-13T15:54:33.447Z,4.95
2022-11-13T15:56:59.978Z,5.32
2022-11-13T15:59:26.336Z,5.43
2022-11-13T16:01:56.942Z,4.75
2022-11-13T16:04:26.720Z,5.78
2022-11-13T16:07:17.592Z,5.32
2022-11-13T16:09:45.202Z,5.80
2022-11-13T16:12:12.843Z,5.68
2022-11-13T16:14:40.214Z,5.32
2022-11-13T16:17:20.829Z,5.60
2022-11-13T16:19:53.045Z,5.65
2022-11-13T16:22:24.389Z,5.20
2022-11-13T16:24:50.745Z,6.10
2022-11-13T16:27:29.179Z,5.97
2022-11-13T16:29:55.631Z,5.75
2022-11-13T16:32:22.390Z,5.68
2022-11-13T16:34:49.106Z,6.07
2022-11-13T16:37:20.438Z,5.28
2022-11-13T16:39:47.015Z,5.72
2022-11-13T16:42:14.682Z,5.93
2022-11-13T16:44:41.458Z,5.97
2022-11-13T16:47:20.916Z,7.15
2022-11-13T16:49:47.390Z,6.70
2022-11-13T16:52:13.727Z,7.22
2022-11-13T16:54:40.097Z,7.95
2022-11-13T16:57:08.768Z,8.80
2022-11-13T16:59:35.099Z,8.90
2022-11-13T17:02:01.687Z,8.75
2022-11-13T17:04:28.240Z,9.02
2022-11-13T17:06:57.760Z,9.60
2022-11-13T17:09:24.418Z,9.45
2022-11-13T17:11:50.885Z,10.15
2022-11-13T17:14:17.298Z,10.23
2022-11-13T17:16:43.673Z,10.75
2022-11-13T17:19:13.651Z,11.10
2022-11-13T17:21:44.125Z,11.27
2022-11-13T17:24:10.943Z,11.35
2022-11-13T17:26:37.274Z,12.18
2022-11-13T17:29:05.669Z,12.27
2022-11-13T17:31:32.317Z,13.05
2022-11-13T17:33:58.738Z,12.43
2022-11-13T17:36:25.224Z,13.27
2022-11-13T17:38:51.614Z,12.98
2022-11-13T17:41:18.129Z,14.65
2022-11-13T17:43:44.637Z,14.95
2022-11-13T17:46:14.416Z,13.68
2022-11-13T17:48:41.628Z,15.63
2022-11-13T17:51:12.121Z,15.45
2022-11-13T17:53:38.534Z,16.60
2022-11-13T17:56:08.048Z,17.02
2022-11-13T17:58:41.534Z,17.45
2022-11-13T18:01:11.190Z,16.55
2022-11-13T18:03:38.153Z,18.58
2022-11-13T18:06:11.219Z,18.75
2022-11-13T18:08:41.313Z,17.45
2022-11-13T18:11:15.550Z,17.55
2022-11-13T18:13:43.017Z,18.52
2022-11-13T18:16:12.808Z,17.13
2022-11-13T18:18:39.433Z,18.42
2022-11-13T18:21:22.420Z,20.80
2022-11-13T18:23:55.383Z,20.77
2022-11-13T18:26:21.706Z,20.88
2022-11-13T18:28:48.060Z,20.75
2022-11-13T18:31:17.728Z,23.20
2022-11-13T18:33:44.748Z,22.60
2022-11-13T18:36:11.421Z,22.48
2022-11-13T18:38:37.910Z,21.70
2022-11-13T18:41:18.586Z,22.13
2022-11-13T18:43:46.653Z,22.63
2022-11-13T18:46:14.575Z,21.83
2022-11-13T18:48:43.717Z,22.00
2022-11-13T18:51:14.814Z,21.98
2022-11-13T18:53:43.645Z,23.48
2022-11-13T18:56:34.441Z,21.67
2022-11-13T18:59:00.878Z,21.83
2022-11-13T19:01:30.847Z,23.88
2022-11-13T19:04:21.762Z,22.52
2022-11-13T19:06:49.325Z,22.83
2022-11-13T19:09:16.945Z,24.02
2022-11-13T19:11:43.751Z,22.92
2022-11-13T19:14:13.822Z,23.08
2022-11-13T19:16:40.275Z,23.50
2022-11-13T19:19:19.683Z,23.23
2022-11-13T19:21:46.615Z,23.98
2022-11-13T19:24:14.647Z,23.15
2022-11-13T19:26:42.441Z,22.95
2022-11-13T19:29:08.857Z,25.02
2022-11-13T19:31:35.350Z,24.25
2022-11-13T19:34:04.729Z,22.88
2022-11-13T19:36:32.062Z,22.42
2022-11-13T19:38:59.079Z,23.52
2022-11-13T19:41:27.922Z,23.50
2022-11-13T19:43:55.093Z,22.27
2022-11-13T19:46:21.696Z,22.80
2022-11-13T19:48:49.544Z,22.58
2022-11-13T19:51:19.174Z,24.40
2022-11-13T19:53:46.342Z,23.75
2022-11-13T19:56:23.134Z,24.30
2022-11-13T19:58:51.198Z,22.85
2022-11-13T20:01:23.421Z,25.15
2022-11-13T20:03:54.634Z,25.73
2022-11-13T20:06:21.577Z,23.88
2022-11-13T20:08:48.177Z,24.27
2022-11-13T20:11:18.063Z,25.30
2022-11-13T20:13:44.741Z,25.00
2022-11-13T20:16:14.041Z,23.58
2022-11-13T20:18:42.448Z,24.20
2022-11-13T20:21:09.582Z,25.17
2022-11-13T20:23:36.549Z,24.00
2022-11-13T20:26:05.935Z,25.42
2022-11-13T20:28:32.652Z,26.05
2022-11-13T20:31:02.975Z,24.27
2022-11-13T20:33:34.599Z,25.05
2022-11-13T20:36:02.469Z,25.50
2022-11-13T20:38:29.752Z,23.80
2022-11-13T20:40:56.391Z,24.70
2022-11-13T20:43:22.987Z,24.77
2022-11-13T20:45:49.667Z,24.70
2022-11-13T20:48:16.111Z,23.92
2022-11-13T20:50:42.568Z,23.67
2022-11-13T20:53:09.162Z,25.20
2022-11-13T20:55:35.552Z,25.45
2022-11-13T20:58:04.297Z,25.20
2022-11-13T21:00:31.043Z,24.98
2022-11-13T21:05:38.903Z,26.13
2022-11-13T21:08:05.433Z,25.67
2022-11-13T21:10:33.573Z,26.42
2022-11-13T21:13:00.033Z,24.50
2022-11-13T21:15:26.480Z,25.25
2022-11-13T21:17:53.015Z,24.50
2022-11-13T21:20:19.463Z,25.13
2022-11-13T21:22:45.886Z,27.13
2022-11-13T21:25:12.424Z,25.00
2022-11-13T21:27:38.844Z,27.27
2022-11-13T21:30:05.961Z,26.02
2022-11-13T21:32:32.436Z,25.58
2022-11-13T21:35:34.604Z,25.90
2022-11-13T21:38:05.234Z,26.77
2022-11-13T21:40:31.653Z,27.35
2022-11-13T21:42:58.050Z,26.80
2022-11-13T21:45:24.505Z,28.00
2022-11-13T21:47:52.648Z,26.48
2022-11-13T21:50:19.130Z,27.58
2022-11-13T21:52:45.551Z,27.67
2022-11-13T21:55:11.936Z,27.90
2022-11-13T21:57:38.245Z,26.17
2022-11-13T22:00:05.410Z,29.08
2022-11-13T22:02:31.897Z,27.85
2022-11-13T22:04:58.269Z,26.98
2022-11-13T22:07:24.792Z,28.45
2022-11-13T22:09:51.149Z,27.67
2022-11-13T22:12:17.465Z,28.05
2022-11-13T22:14:43.849Z,27.33
2022-11-13T22:17:10.216Z,28.05
2022-11-13T22:19:36.721Z,27.40
2022-11-13T22:22:03.278Z,27.73
2022-11-13T22:24:30.698Z,28.00
2022-11-13T22:26:57.095Z,28.50
2022-11-13T22:29:23.458Z,27.20
2022-11-13T22:31:49.807Z,27.08
2022-11-13T22:34:16.145Z,27.92
2022-11-13T22:36:42.490Z,27.17
2022-11-13T22:39:08.920Z,28.95
2022-11-13T22:41:36.423Z,30.58
2022-11-13T22:44:11.528Z,29.00
2022-11-13T22:46:38.143Z,27.25
2022-11-13T22:49:05.984Z,27.98
2022-11-13T22:51:38.455Z,26.88
2022-11-13T22:54:14.097Z,27.13
2022-11-13T22:56:41.272Z,28.73
2022-11-13T22:59:10.879Z,28.77
2022-11-13T23:01:38.772Z,28.77
2022-11-13T23:04:07.870Z,27.75
2022-11-13T23:06:35.508Z,29.17
2022-11-13T23:09:03.336Z,27.77
2022-11-13T23:11:33.168Z,27.88
2022-11-13T23:14:02.156Z,26.15
2022-11-13T23:16:30.065Z,28.25
2022-11-13T23:18:58.250Z,27.95
2022-11-13T23:21:26.241Z,27.73
2022-11-13T23:23:53.656Z,27.15
2022-11-13T23:26:20.901Z,28.05
2022-11-13T23:28:47.392Z,27.33
2022-11-13T23:31:13.889Z,29.63
2022-11-13T23:33:40.881Z,28.48
2022-11-13T23:36:09.393Z,29.02
2022-11-13T23:38:36.149Z,27.55
2022-11-13T23:41:02.697Z,27.13
2022-11-13T23:43:54.197Z,28.00
2022-11-13T23:46:16.662Z,28.35
2022-11-13T23:48:43.019Z,26.83
2022-11-13T23:51:09.362Z,27.15
2022-11-13T23:53:35.818Z,28.05
2022-11-13T23:56:02.212Z,27.50
2022-11-13T23:58:29.006Z,27.95
